Time;durP1;ratioP1;P1;durP2;ratioP2;P2;SDS_P1;SDS_P2;PMS_P1;PMS_P2;Temp;Humidity;BMP_temperature;BMP_pressure;BME280_temperature;BME280_humidity;BME280_pressure;Samples;Min_cycle;Max_cycle;Signal;HPM_P1;HPM_P2
2022/04/17 00:00:31;;;;;;;3.50;2.05;;;;;;;7.91;38.15;100154.09;2618411;54;20574;-65
2022/04/17 00:03:01;;;;;;;2.50;2.30;;;;;;;7.89;37.86;100144.69;2618343;54;20042;-65
2022/04/17 00:05:31;;;;;;;2.28;2.00;;;;;;;7.86;38.02;100153.69;2618762;54;20057;-65
2022/04/17 00:08:03;;;;;;;2.78;2.20;;;;;;;7.82;38.40;100160.22;2620182;54;20078;-65
2022/04/17 00:10:33;;;;;;;2.80;2.38;;;;;;;7.78;38.31;100161.47;2618466;47;20035;-66
2022/04/17 00:13:04;;;;;;;3.92;2.05;;;;;;;7.74;38.40;100152.19;2618174;54;20586;-66
2022/04/17 00:15:34;;;;;;;4.43;2.15;;;;;;;7.76;38.57;100159.97;2617565;54;20039;-66
2022/04/17 00:18:04;;;;;;;3.42;2.38;;;;;;;7.70;38.78;100156.06;2617434;54;20042;-67
2022/04/17 00:20:33;;;;;;;3.58;1.95;;;;;;;7.64;39.14;100152.22;2617494;47;20039;-67
2022/04/17 00:23:06;;;;;;;5.25;2.38;;;;;;;7.63;39.41;100147.06;2617252;47;20041;-67
2022/04/17 00:25:35;;;;;;;2.53;2.15;;;;;;;7.60;39.39;100145.56;2618241;54;20069;-67
2022/04/17 00:28:05;;;;;;;3.20;2.22;;;;;;;7.64;39.03;100149.59;2617740;54;20034;-66
2022/04/17 00:30:35;;;;;;;2.58;2.00;;;;;;;7.72;39.17;100142.78;2618502;54;20038;-67
2022/04/17 00:33:05;;;;;;;4.25;2.08;;;;;;;7.74;39.24;100138.19;2618164;54;20034;-67
2022/04/17 00:35:35;;;;;;;3.15;2.47;;;;;;;7.80;39.51;100133.22;2620127;54;20103;-67
2022/04/17 00:38:07;;;;;;;4.95;2.33;;;;;;;7.78;39.74;100129.88;2622046;54;20019;-68
2022/04/17 00:40:37;;;;;;;3.22;2.33;;;;;;;7.78;39.33;100132.50;2621418;54;20035;-67
2022/04/17 00:43:20;;;;;;;3.15;2.13;;;;;;;7.75;39.83;100127.53;2621471;54;20022;-67
2022/04/17 00:45:51;;;;;;;2.92;2.17;;;;;;;7.75;39.74;100126.69;2621093;54;20042;-67
2022/04/17 00:48:21;;;;;;;4.40;2.58;;;;;;;7.80;39.70;100122.69;2621729;54;20038;-67
2022/04/17 00:50:53;;;;;;;4.45;2.40;;;;;;;7.86;39.83;100123.91;2621237;54;20030;-67
2022/04/17 00:53:28;;;;;;;4.85;2.20;;;;;;;7.87;40.02;100117.66;2621189;47;20022;-66
2022/04/17 00:55:59;;;;;;;3.50;2.63;;;;;;;7.90;39.84;100125.28;2620076;47;20035;-66
2022/04/17 00:58:30;;;;;;;7.88;2.50;;;;;;;7.89;39.58;100121.81;2618290;39;20430;-65
2022/04/17 01:01:00;;;;;;;3.83;2.42;;;;;;;7.88;39.79;100117.53;2623114;54;20035;-66
2022/04/17 01:03:30;;;;;;;3.42;2.00;;;;;;;7.84;39.85;100118.78;2622038;54;20585;-66
2022/04/17 01:06:01;;;;;;;3.60;2.38;;;;;;;7.81;39.69;100115.63;2621160;54;20048;-66
2022/04/17 01:08:34;;;;;;;2.80;2.28;;;;;;;7.70;39.86;100119.22;2620914;47;20030;-66
2022/04/17 01:11:04;;;;;;;2.65;1.90;;;;;;;7.59;40.11;100114.97;2619201;54;20115;-65
2022/04/17 01:13:36;;;;;;;3.20;2.30;;;;;;;7.60;40.32;100113.16;2618669;54;20037;-65
2022/04/17 01:16:09;;;;;;;4.57;2.63;;;;;;;7.53;40.44;100112.88;2618864;39;20773;-65
2022/04/17 01:18:55;;;;;;;4.70;2.37;;;;;;;7.39;41.21;100110.72;2617923;54;20030;-66
2022/04/17 01:21:27;;;;;;;2.95;2.63;;;;;;;7.28;41.42;100114.31;2618404;54;20049;-65
2022/04/17 01:29:23;;;;;;;2.38;2.17;;;;;;;7.09;42.29;100116.94;2617702;47;20034;-66
2022/04/17 01:31:53;;;;;;;3.58;2.55;;;;;;;7.06;42.61;100104.91;2618191;54;20026;-66
2022/04/17 01:34:24;;;;;;;2.92;2.20;;;;;;;7.00;42.70;100094.09;2618565;54;20069;-66
2022/04/17 01:36:56;;;;;;;4.15;2.65;;;;;;;6.80;43.65;100099.34;2618659;54;20041;-67
2022/04/17 01:39:26;;;;;;;3.45;2.50;;;;;;;6.68;44.09;100101.25;2618289;54;20121;-66
2022/04/17 01:41:57;;;;;;;3.65;2.42;;;;;;;6.77;44.18;100104.03;2618239;54;20028;-67
2022/04/17 01:44:28;;;;;;;2.70;2.50;;;;;;;6.84;44.05;100105.97;2618152;47;20078;-66
2022/04/17 01:46:59;;;;;;;4.35;2.55;;;;;;;6.87;43.54;100105.72;2617955;54;20538;-67
2022/04/17 01:49:29;;;;;;;3.97;2.53;;;;;;;6.88;43.78;100106.53;2618889;54;20039;-67
2022/04/17 01:52:01;;;;;;;2.97;2.30;;;;;;;6.82;43.80;100107.94;2618840;54;20034;-67
2022/04/17 01:54:32;;;;;;;4.25;2.70;;;;;;;6.57;44.46;100100.53;2617988;47;20030;-67
2022/04/17 01:57:03;;;;;;;4.63;2.75;;;;;;;6.51;44.79;100103.72;2618681;39;20443;-66
2022/04/17 01:59:32;;;;;;;10.23;3.90;;;;;;;6.41;44.86;100101.91;2618707;54;20030;-66
2022/04/17 02:02:02;;;;;;;6.80;4.30;;;;;;;6.42;45.25;100102.72;2618643;54;20034;-65
2022/04/17 02:04:35;;;;;;;3.40;2.55;;;;;;;6.48;45.40;100090.84;2619180;39;20467;-65
2022/04/17 02:07:08;;;;;;;4.97;2.95;;;;;;;6.51;45.27;100087.94;2618350;54;20026;-65
2022/04/17 02:09:37;;;;;;;4.60;2.70;;;;;;;6.40;45.31;100086.25;2618069;54;20026;-66
2022/04/17 02:12:08;;;;;;;4.43;3.20;;;;;;;6.43;45.53;100075.50;2619050;39;20425;-65
2022/04/17 02:14:37;;;;;;;2.97;2.78;;;;;;;6.45;45.22;100084.91;2618147;47;20027;-65
2022/04/17 02:17:07;;;;;;;11.85;2.97;;;;;;;6.45;45.02;100082.28;2617817;54;20561;-65
2022/04/17 02:19:36;;;;;;;3.60;2.65;;;;;;;6.44;45.31;100082.41;2618650;54;20041;-65
2022/04/17 02:22:09;;;;;;;5.00;2.17;;;;;;;6.48;45.59;100088.22;2618473;54;20061;-65
2022/04/17 02:24:38;;;;;;;3.60;2.58;;;;;;;6.48;45.84;100089.03;2618044;54;20034;-65
2022/04/17 02:27:08;;;;;;;4.75;2.65;;;;;;;6.38;45.79;100078.53;2618626;54;20027;-65
2022/04/17 02:29:38;;;;;;;4.50;2.65;;;;;;;6.37;46.33;100090.00;2619127;54;20027;-66
2022/04/17 02:32:08;;;;;;;3.58;2.33;;;;;;;6.26;46.45;100082.22;2619496;54;20027;-65
2022/04/17 02:34:38;;;;;;;3.03;2.40;;;;;;;6.12;46.66;100080.81;2621784;54;20030;-66
2022/04/17 02:37:10;;;;;;;3.28;2.63;;;;;;;6.03;47.03;100084.19;2622544;54;20026;-64
2022/04/17 02:39:39;;;;;;;3.95;2.50;;;;;;;5.97;47.39;100087.38;2621280;54;20027;-65
2022/04/17 02:42:09;;;;;;;3.50;2.65;;;;;;;6.01;47.60;100074.81;2618780;54;20038;-65
2022/04/17 02:44:39;;;;;;;4.63;2.45;;;;;;;6.00;47.35;100076.63;2618069;54;20034;-65
2022/04/17 02:49:50;;;;;;;4.45;3.08;;;;;;;5.73;47.68;100082.38;2618825;54;20026;-65
2022/04/17 02:52:23;;;;;;;4.70;3.10;;;;;;;5.64;48.16;100070.88;2619066;54;20566;-65
2022/04/17 02:54:53;;;;;;;3.20;2.50;;;;;;;5.67;47.73;100060.13;2618993;54;20054;-65
2022/04/17 02:57:23;;;;;;;3.00;2.70;;;;;;;5.78;48.02;100064.44;2618586;54;20041;-65
2022/04/17 02:59:53;;;;;;;3.97;2.58;;;;;;;5.68;47.38;100055.72;2618512;54;20026;-65
2022/04/17 03:07:49;;;;;;;3.10;2.65;;;;;;;5.47;47.55;100055.75;2619378;54;20042;-66
2022/04/17 03:10:19;;;;;;;3.53;2.78;;;;;;;5.43;48.01;100044.69;2620224;54;20031;-68
2022/04/17 03:12:49;;;;;;;3.95;2.65;;;;;;;5.52;48.20;100047.47;2620348;54;20033;-66
2022/04/17 03:15:19;;;;;;;2.63;2.42;;;;;;;5.61;47.58;100046.69;2620908;54;20614;-66
2022/04/17 03:17:48;;;;;;;3.78;2.45;;;;;;;5.64;47.96;100042.03;2619251;39;20419;-65
2022/04/17 03:20:18;;;;;;;5.90;2.60;;;;;;;5.63;48.02;100045.63;2618291;54;20045;-66
2022/04/17 03:22:50;;;;;;;3.90;2.95;;;;;;;5.62;47.68;100035.22;2617884;54;20038;-66
2022/04/17 03:25:20;;;;;;;4.95;2.80;;;;;;;5.64;47.86;100030.69;2617732;54;20034;-66
2022/04/17 03:27:50;;;;;;;4.45;2.63;;;;;;;5.66;47.81;100034.84;2617594;54;20034;-66
2022/04/17 03:30:21;;;;;;;4.15;2.78;;;;;;;5.64;48.07;100041.19;2618301;54;20034;-65
2022/04/17 03:32:52;;;;;;;3.70;2.42;;;;;;;5.46;47.92;100035.69;2617717;54;20046;-66
2022/04/17 03:35:22;;;;;;;3.33;2.42;;;;;;;5.43;48.96;100038.59;2618150;54;20023;-66
2022/04/17 03:37:54;;;;;;;3.45;2.83;;;;;;;5.40;49.15;100036.22;2617948;54;20061;-65
2022/04/17 03:40:24;;;;;;;4.15;2.90;;;;;;;5.40;49.30;100044.09;2618468;54;20023;-65
2022/04/17 03:42:54;;;;;;;2.63;2.42;;;;;;;5.42;49.03;100040.38;2617539;47;20037;-65
2022/04/17 03:45:24;;;;;;;5.07;2.65;;;;;;;5.38;49.57;100038.13;2618199;54;20031;-64
2022/04/17 03:47:54;;;;;;;5.13;2.80;;;;;;;5.37;49.71;100041.72;2618039;54;20031;-65
2022/04/17 03:50:24;;;;;;;3.10;2.65;;;;;;;5.35;49.86;100043.66;2617583;47;20026;-65
2022/04/17 03:52:56;;;;;;;2.72;2.53;;;;;;;5.19;49.91;100031.81;2618756;39;20419;-66
2022/04/17 03:55:26;;;;;;;4.38;2.88;;;;;;;5.09;49.79;100033.53;2617980;54;20030;-66
2022/04/17 03:57:56;;;;;;;4.93;2.70;;;;;;;5.04;50.15;100029.66;2618409;39;20426;-66
2022/04/17 04:00:26;;;;;;;4.03;2.53;;;;;;;4.93;50.32;100030.53;2618233;46;20535;-66
2022/04/17 04:02:55;;;;;;;4.43;2.80;;;;;;;4.82;50.68;100028.81;2618207;54;20042;-65
2022/04/17 04:05:25;;;;;;;7.20;3.28;;;;;;;4.87;50.44;100031.88;2618305;54;20143;-65
2022/04/17 04:07:57;;;;;;;6.13;3.17;;;;;;;4.79;51.29;100021.19;2617916;54;20034;-65
2022/04/17 04:10:27;;;;;;;3.10;2.80;;;;;;;4.80;51.21;100024.63;2618092;54;20037;-65
2022/04/17 04:12:56;;;;;;;4.32;2.38;;;;;;;4.92;51.13;100013.13;2618027;54;20038;-65
2022/04/17 04:15:26;;;;;;;2.33;2.13;;;;;;;5.03;51.03;100014.88;2618219;54;20042;-66
2022/04/17 04:17:56;;;;;;;2.90;2.60;;;;;;;4.99;50.80;100010.84;2616547;54;20026;-66
2022/04/17 04:20:25;;;;;;;3.67;2.80;;;;;;;5.01;51.19;100014.16;2616871;47;20868;-66
2022/04/17 04:22:59;;;;;;;3.13;2.65;;;;;;;5.04;51.10;100019.16;2617890;54;20022;-65
2022/04/17 04:25:29;;;;;;;4.20;2.65;;;;;;;5.09;51.31;100012.56;2618135;54;20026;-66
2022/04/17 04:30:41;;;;;;;4.78;2.40;;;;;;;5.07;50.70;100011.88;2617803;54;20026;-65
2022/04/17 04:33:10;;;;;;;5.05;2.53;;;;;;;4.69;51.48;100009.78;2618430;39;20435;-65
2022/04/17 04:35:40;;;;;;;3.53;2.60;;;;;;;4.56;51.79;100015.19;2618247;54;20038;-65
2022/04/17 04:38:12;;;;;;;4.57;2.67;;;;;;;4.42;51.70;100018.94;2617712;54;20038;-66
2022/04/17 04:40:42;;;;;;;5.68;2.88;;;;;;;4.32;52.42;100015.38;2620301;54;20027;-66
2022/04/17 04:43:12;;;;;;;3.17;2.83;;;;;;;4.33;52.08;100024.91;2618962;54;20030;-66
2022/04/17 04:51:05;;;;;;;3.97;3.13;;;;;;;4.08;53.16;100028.66;2621259;46;20058;-66
2022/04/17 04:53:38;;;;;;;4.95;3.05;;;;;;;4.18;53.16;100029.56;2621043;54;20042;-66
2022/04/17 04:56:08;;;;;;;6.57;3.03;;;;;;;4.27;53.19;100028.00;2618911;54;20038;-67
2022/04/17 04:58:37;;;;;;;3.95;2.88;;;;;;;4.29;52.80;100028.75;2618567;54;20046;-67
2022/04/17 05:01:07;;;;;;;5.18;2.83;;;;;;;4.30;52.88;100027.78;2619123;54;20038;-66
2022/04/17 05:03:37;;;;;;;3.75;3.00;;;;;;;4.31;53.49;100041.69;2620691;54;20571;-66
2022/04/17 05:06:07;;;;;;;4.20;3.17;;;;;;;4.40;53.86;100036.53;2620234;54;20075;-67
2022/04/17 05:08:40;;;;;;;3.58;2.60;;;;;;;4.59;53.33;100029.84;2619968;54;20038;-67
2022/04/17 05:11:09;;;;;;;4.65;3.13;;;;;;;4.66;52.85;100031.84;2621699;54;20039;-71
2022/04/17 05:13:39;;;;;;;7.07;2.70;;;;;;;4.84;52.74;100026.88;2621180;54;20034;-66
2022/04/17 05:16:09;;;;;;;3.20;2.67;;;;;;;4.99;52.62;100023.97;2620481;54;20523;-66
2022/04/17 05:18:38;;;;;;;4.00;2.85;;;;;;;5.15;52.17;100037.47;2618422;54;20059;-66
2022/04/17 05:21:08;;;;;;;4.68;3.30;;;;;;;5.27;51.79;100030.38;2618184;54;20038;-66
2022/04/17 05:23:41;;;;;;;8.55;3.00;;;;;;;5.18;51.61;100027.56;2618925;54;20034;-66
2022/04/17 05:26:10;;;;;;;4.78;3.70;;;;;;;5.16;51.72;100026.00;2618651;54;20034;-66
2022/04/17 05:28:40;;;;;;;9.68;6.70;;;;;;;5.15;51.73;100033.03;2618243;54;20038;-66
2022/04/17 05:31:10;;;;;;;3.92;2.90;;;;;;;5.20;52.05;100035.28;2618561;54;20038;-66
2022/04/17 05:33:39;;;;;;;3.03;2.80;;;;;;;5.28;51.32;100021.53;2618605;54;20061;-67
2022/04/17 05:36:09;;;;;;;6.47;3.00;;;;;;;5.19;51.44;100026.59;2618592;54;20569;-66
2022/04/17 05:38:41;;;;;;;5.07;2.97;;;;;;;5.19;51.73;100031.81;2618573;54;20026;-66
2022/04/17 05:41:12;;;;;;;5.80;4.13;;;;;;;5.31;51.23;100035.22;2618064;47;20029;-66
2022/04/17 05:43:43;;;;;;;5.45;3.63;;;;;;;5.28;51.33;100032.03;2618940;54;20048;-66
2022/04/17 05:46:12;;;;;;;7.22;4.68;;;;;;;5.17;52.31;100041.59;2618832;54;20041;-65
2022/04/17 05:48:42;;;;;;;7.03;4.18;;;;;;;5.35;52.23;100046.28;2618368;54;20085;-66
2022/04/17 05:51:12;;;;;;;6.38;3.63;;;;;;;5.52;51.52;100050.09;2618425;54;20042;-66
2022/04/17 05:53:44;;;;;;;8.50;5.93;;;;;;;5.64;51.24;100051.69;2618771;54;20030;-65
2022/04/17 05:56:14;;;;;;;3.40;3.10;;;;;;;5.72;50.99;100050.06;2618509;39;20416;-66
2022/04/17 05:58:44;;;;;;;10.50;5.95;;;;;;;5.87;51.09;100044.47;2618272;54;20026;-66
2022/04/17 06:01:14;;;;;;;5.10;4.43;;;;;;;6.00;50.75;100045.13;2617978;54;20034;-66
2022/04/17 06:03:44;;;;;;;4.45;3.95;;;;;;;6.13;50.37;100044.88;2618705;54;20043;-66
2022/04/17 06:06:14;;;;;;;3.53;3.20;;;;;;;6.26;50.27;100047.25;2617933;54;20026;-66
2022/04/17 06:08:46;;;;;;;3.83;3.15;;;;;;;6.33;50.08;100036.09;2618033;54;20030;-66
2022/04/17 06:11:16;;;;;;;4.38;3.00;;;;;;;6.42;49.87;100039.69;2618469;54;20031;-66
2022/04/17 06:13:46;;;;;;;4.13;3.15;;;;;;;6.48;49.30;100039.13;2618731;54;20022;-66
2022/04/17 06:16:15;;;;;;;8.68;3.33;;;;;;;6.52;49.30;100037.06;2618878;54;20038;-67
2022/04/17 06:18:45;;;;;;;4.75;2.63;;;;;;;6.63;48.67;100039.56;2618482;39;20443;-67
2022/04/17 06:21:18;;;;;;;2.53;2.33;;;;;;;6.66;48.01;100031.44;2618367;54;20046;-66
2022/04/17 06:23:50;;;;;;;7.90;2.55;;;;;;;6.74;48.33;100036.81;2618219;47;20057;-66
2022/04/17 06:26:20;;;;;;;3.28;2.55;;;;;;;6.81;47.67;100037.09;2618501;54;20543;-66
2022/04/17 06:28:50;;;;;;;7.65;4.38;;;;;;;6.84;47.71;100037.63;2618172;54;20042;-68
2022/04/17 06:31:19;;;;;;;3.53;3.08;;;;;;;6.96;47.44;100035.69;2618828;39;20482;-66
2022/04/17 06:33:49;;;;;;;4.25;2.85;;;;;;;7.09;47.23;100038.03;2617843;54;20030;-66
2022/04/17 06:36:19;;;;;;;4.20;2.28;;;;;;;7.24;46.35;100035.81;2618924;39;20415;-65
2022/04/17 06:38:51;;;;;;;4.65;2.85;;;;;;;7.32;46.17;100028.06;2618493;39;20450;-66
2022/04/17 06:41:21;;;;;;;4.05;3.10;;;;;;;7.39;46.21;100042.31;2617646;46;20026;-65
2022/04/17 06:43:52;;;;;;;2.83;2.17;;;;;;;7.47;45.88;100029.28;2619481;39;20459;-67
2022/04/17 06:46:21;;;;;;;2.38;2.17;;;;;;;7.60;45.47;100028.94;2619505;39;20416;-66
2022/04/17 06:48:51;;;;;;;3.60;2.55;;;;;;;7.69;45.45;100035.97;2617414;47;20030;-65
2022/04/17 06:51:24;;;;;;;3.35;2.65;;;;;;;7.76;45.35;100029.19;2618251;54;20038;-66
2022/04/17 06:53:56;;;;;;;3.88;2.60;;;;;;;7.89;45.10;100021.78;2618344;54;20030;-66
2022/04/17 06:56:25;;;;;;;5.63;2.75;;;;;;;8.03;44.48;100020.44;2618138;47;20027;-65
2022/04/17 06:58:55;;;;;;;4.03;2.53;;;;;;;8.13;44.33;100025.69;2621033;39;20523;-65
2022/04/17 07:01:25;;;;;;;3.53;2.13;;;;;;;8.22;44.21;100014.25;2619660;47;20031;-66
2022/04/17 07:03:54;;;;;;;3.13;2.50;;;;;;;8.41;44.23;100013.34;2618924;54;20061;-65
2022/04/17 07:06:24;;;;;;;11.35;3.10;;;;;;;8.59;43.34;100002.81;2618399;54;20026;-65
2022/04/17 07:08:56;;;;;;;3.35;2.15;;;;;;;8.78;42.02;100005.28;2617919;54;20026;-66
2022/04/17 07:11:27;;;;;;;3.45;1.95;;;;;;;8.88;41.11;99998.13;2618223;54;20037;-66
2022/04/17 07:13:57;;;;;;;3.53;2.22;;;;;;;9.03;41.33;99997.59;2618415;54;20031;-66
2022/04/17 07:16:26;;;;;;;4.43;2.55;;;;;;;9.20;39.87;99986.16;2617839;54;20038;-66
2022/04/17 07:18:56;;;;;;;3.13;2.53;;;;;;;9.29;38.85;99987.84;2618102;54;20543;-66
2022/04/17 07:21:28;;;;;;;3.05;2.22;;;;;;;9.39;37.67;99988.59;2618406;54;20550;-66
2022/04/17 07:24:01;;;;;;;3.90;2.20;;;;;;;9.41;37.67;99994.53;2618291;54;20046;-66
2022/04/17 07:26:31;;;;;;;3.75;3.05;;;;;;;9.52;37.38;99995.25;2617937;47;20054;-66
2022/04/17 07:29:02;;;;;;;12.93;6.70;;;;;;;9.62;37.03;99988.03;2618169;54;20030;-64
2022/04/17 07:31:32;;;;;;;2.33;1.98;;;;;;;9.66;36.50;99994.66;2618160;54;20030;-65
2022/04/17 07:34:01;;;;;;;2.72;1.80;;;;;;;9.68;36.20;99990.88;2618231;54;20059;-65
2022/04/17 07:36:31;;;;;;;3.15;2.10;;;;;;;9.72;36.49;99988.78;2618435;54;20069;-65
2022/04/17 07:39:03;;;;;;;3.67;2.45;;;;;;;9.81;36.77;99981.69;2617989;54;20066;-65
2022/04/17 07:41:33;;;;;;;2.95;2.40;;;;;;;9.87;36.58;99978.41;2618383;54;20030;-65
2022/04/17 07:44:03;;;;;;;2.20;1.88;;;;;;;9.96;36.07;99972.19;2618246;54;20031;-65
2022/04/17 07:46:33;;;;;;;2.85;2.05;;;;;;;10.08;35.41;99967.41;2618354;54;20535;-66
2022/04/17 07:49:03;;;;;;;3.88;2.00;;;;;;;10.17;35.57;99972.59;2618039;54;20050;-64
2022/04/17 07:51:32;;;;;;;3.10;2.15;;;;;;;10.25;34.86;99966.53;2618343;54;20069;-64
2022/04/17 07:54:06;;;;;;;4.90;1.95;;;;;;;10.29;34.72;99969.69;2617810;54;20035;-65
2022/04/17 07:56:35;;;;;;;3.63;2.23;;;;;;;10.34;34.39;99957.63;2618211;54;20026;-65
2022/04/17 07:59:05;;;;;;;3.67;2.50;;;;;;;10.46;33.90;99960.78;2617932;54;20539;-65
2022/04/17 08:01:39;;;;;;;3.65;2.00;;;;;;;10.51;34.31;99953.16;2618108;54;20065;-65
2022/04/17 08:04:09;;;;;;;3.78;2.20;;;;;;;10.61;34.05;99953.00;2618807;39;20431;-67
2022/04/17 08:06:43;;;;;;;3.15;2.25;;;;;;;10.55;34.39;99951.84;2617925;54;20135;-64
2022/04/17 08:09:15;;;;;;;2.67;1.90;;;;;;;10.60;34.36;99954.81;2618083;54;20041;-66
2022/04/17 08:11:51;;;;;;;3.35;2.10;;;;;;;10.76;34.05;99950.53;2617681;47;20063;-66
2022/04/17 08:14:21;;;;;;;2.78;1.92;;;;;;;10.79;34.38;99944.91;2618386;54;20035;-66
2022/04/17 08:16:50;;;;;;;2.72;1.98;;;;;;;10.83;33.51;99938.31;2617900;54;20057;-65
2022/04/17 08:19:22;;;;;;;2.58;1.95;;;;;;;10.93;33.25;99938.94;2617383;47;20098;-66
2022/04/17 08:21:51;;;;;;;3.05;2.00;;;;;;;10.96;33.23;99943.09;2617465;47;20065;-65
2022/04/17 08:24:23;;;;;;;2.15;1.90;;;;;;;11.01;33.48;99941.56;2618415;39;20456;-66
2022/04/17 08:26:54;;;;;;;2.42;1.73;;;;;;;11.16;33.07;99945.19;2617568;54;20031;-65
2022/04/17 08:29:24;;;;;;;2.40;1.88;;;;;;;11.23;32.73;99944.53;2618167;54;20027;-65
2022/04/17 08:31:53;;;;;;;3.40;2.40;;;;;;;11.28;32.94;99929.78;2618764;39;20471;-64
2022/04/17 08:34:23;;;;;;;2.03;1.80;;;;;;;11.40;32.96;99928.44;2618061;54;20038;-65
2022/04/17 08:36:53;;;;;;;6.32;3.72;;;;;;;11.54;31.96;99928.72;2617572;54;20035;-64
2022/04/17 08:39:26;;;;;;;43.03;20.42;;;;;;;11.62;31.79;99926.84;2618005;54;20038;-64
2022/04/17 08:41:56;;;;;;;17.85;9.25;;;;;;;11.68;31.43;99921.88;2617968;54;20041;-65
2022/04/17 08:44:26;;;;;;;15.27;8.18;;;;;;;11.70;31.64;99919.88;2618898;54;20041;-64
2022/04/17 08:46:56;;;;;;;13.00;5.43;;;;;;;11.73;31.42;99906.28;2618446;54;20158;-64
2022/04/17 08:49:29;;;;;;;4.72;3.05;;;;;;;11.85;31.13;99905.75;2618674;54;20039;-65
2022/04/17 08:52:01;;;;;;;3.80;2.70;;;;;;;11.92;31.29;99900.59;2618818;54;20065;-64
2022/04/17 08:54:34;;;;;;;5.47;3.45;;;;;;;11.89;31.59;99906.25;2618701;54;20026;-65
2022/04/17 08:57:06;;;;;;;6.07;3.10;;;;;;;11.99;31.45;99896.22;2618312;54;20042;-65
2022/04/17 08:59:35;;;;;;;6.57;2.30;;;;;;;12.07;31.17;99882.13;2618978;54;20043;-64
2022/04/17 09:02:10;;;;;;;3.38;2.40;;;;;;;12.05;31.50;99881.47;2618919;54;20026;-64
2022/04/17 09:04:40;;;;;;;4.20;2.33;;;;;;;12.13;31.74;99878.78;2618961;54;20134;-63
2022/04/17 09:07:12;;;;;;;7.20;5.68;;;;;;;12.29;31.05;99885.78;2618611;54;20045;-64
2022/04/17 09:09:53;;;;;;;3.92;2.50;;;;;;;12.31;31.34;99875.81;2619077;54;20030;-65
2022/04/17 09:12:25;;;;;;;3.38;2.95;;;;;;;12.40;31.11;99878.22;2619426;54;20038;-64
2022/04/17 09:14:56;;;;;;;4.43;2.10;;;;;;;12.45;30.69;99882.16;2619441;31;20519;-65
2022/04/17 09:17:32;;;;;;;2.45;2.20;;;;;;;12.44;31.56;99872.56;2618239;54;20038;-64
2022/04/17 09:20:01;;;;;;;3.22;2.13;;;;;;;12.45;31.33;99874.19;2618969;54;20034;-64
2022/04/17 09:22:47;;;;;;;2.53;1.90;;;;;;;12.54;31.24;99878.47;2619028;54;20114;-64
2022/04/17 09:25:22;;;;;;;2.53;2.03;;;;;;;12.69;29.85;99876.63;2619274;54;20034;-65
2022/04/17 09:28:01;;;;;;;3.70;1.80;;;;;;;12.65;29.67;99872.69;2618929;39;20829;-65
2022/04/17 09:30:32;;;;;;;2.53;1.83;;;;;;;12.70;29.79;99875.66;2619081;54;20163;-63
2022/04/17 09:33:06;;;;;;;3.92;2.10;;;;;;;12.57;30.35;99878.94;2619158;54;20031;-66
2022/04/17 09:35:43;;;;;;;4.18;3.25;;;;;;;12.65;30.31;99875.34;2618900;54;20063;-64
2022/04/17 09:38:13;;;;;;;5.03;3.95;;;;;;;12.83;30.48;99861.78;2618310;54;20046;-65
2022/04/17 09:40:45;;;;;;;4.63;3.30;;;;;;;12.96;30.47;99863.78;2619052;54;20766;-65
2022/04/17 09:43:16;;;;;;;3.75;3.30;;;;;;;13.06;30.50;99865.19;2619128;54;20042;-64
2022/04/17 09:46:00;;;;;;;1.65;1.50;;;;;;;13.07;30.13;99858.84;2618891;39;20441;-65
2022/04/17 09:48:35;;;;;;;9.70;5.75;;;;;;;13.19;29.73;99861.06;2618743;46;20537;-65
2022/04/17 09:51:22;;;;;;;4.10;2.40;;;;;;;13.23;29.27;99857.88;2618570;47;20022;-64
2022/04/17 09:54:00;;;;;;;5.00;2.83;;;;;;;13.19;29.05;99855.75;2618727;54;20037;-65
2022/04/17 09:56:39;;;;;;;22.08;12.80;;;;;;;13.24;29.34;99864.03;2619909;54;20042;-65
2022/04/17 09:59:18;;;;;;;9.80;5.88;;;;;;;13.30;28.83;99853.47;2620211;54;20063;-65
2022/04/17 10:01:49;;;;;;;4.43;3.30;;;;;;;13.33;28.72;99850.44;2621446;54;20038;-65
2022/04/17 10:04:19;;;;;;;2.60;1.55;;;;;;;13.41;28.48;99846.06;2622015;54;20031;-65
2022/04/17 10:06:50;;;;;;;3.65;2.65;;;;;;;13.50;27.31;99837.78;2621631;54;20066;-66
2022/04/17 10:09:21;;;;;;;2.83;1.40;;;;;;;13.50;27.20;99845.75;2621420;54;20050;-64
2022/04/17 10:11:59;;;;;;;8.52;6.43;;;;;;;13.51;27.02;99836.78;2621197;54;20027;-65
2022/04/17 10:14:31;;;;;;;4.47;3.42;;;;;;;13.61;27.12;99841.81;2621090;54;20090;-63
2022/04/17 10:17:03;;;;;;;3.58;1.67;;;;;;;13.58;26.69;99828.88;2621570;54;20034;-65
2022/04/17 10:19:35;;;;;;;13.35;8.48;;;;;;;13.63;26.54;99822.00;2621342;54;20034;-65
2022/04/17 10:22:07;;;;;;;1.85;1.55;;;;;;;13.73;26.07;99818.22;2621896;54;20037;-65
2022/04/17 10:24:51;;;;;;;14.15;12.75;;;;;;;13.81;26.88;99824.25;2621925;54;20082;-65
2022/04/17 10:27:27;;;;;;;264.45;175.05;;;;;;;13.87;26.40;99812.03;2620887;54;20034;-65
2022/04/17 10:30:02;;;;;;;20.55;15.75;;;;;;;13.95;26.07;99806.59;2621351;54;20034;-66
2022/04/17 10:33:08;;;;;;;20.65;13.57;;;;;;;14.07;25.74;99817.53;2619347;54;20033;-64
2022/04/17 10:35:58;;;;;;;27.02;17.13;;;;;;;14.13;25.79;99814.94;2617725;54;20035;-65
2022/04/17 10:38:29;;;;;;;67.78;40.88;;;;;;;14.19;26.13;99804.56;2618294;54;20029;-64
2022/04/17 10:41:01;;;;;;;166.13;90.15;;;;;;;14.33;25.85;99803.66;2618717;54;20034;-64
2022/04/17 10:43:56;;;;;;;86.25;35.38;;;;;;;14.40;25.50;99795.72;2617873;54;20050;-66
2022/04/17 10:46:27;;;;;;;409.27;279.45;;;;;;;14.47;25.32;99799.25;2618603;54;20026;-64
2022/04/17 10:48:58;;;;;;;60.20;33.38;;;;;;;14.51;25.64;99793.38;2617862;54;20038;-64
2022/04/17 10:51:30;;;;;;;107.72;53.47;;;;;;;14.45;25.34;99791.47;2618171;47;20023;-65
2022/04/17 10:54:07;;;;;;;45.05;20.77;;;;;;;14.47;25.29;99794.75;2618851;54;20038;-65
2022/04/17 10:56:38;;;;;;;38.63;20.60;;;;;;;14.52;24.82;99795.03;2619034;54;20037;-65
2022/04/17 10:59:18;;;;;;;374.52;195.25;;;;;;;14.48;25.21;99792.91;2619044;54;20030;-66
2022/04/17 11:01:57;;;;;;;79.57;47.15;;;;;;;14.69;25.37;99781.41;2619715;54;20578;-65
2022/04/17 11:04:28;;;;;;;71.82;45.55;;;;;;;14.82;24.77;99779.69;2619293;54;20538;-64
2022/04/17 11:07:23;;;;;;;176.48;113.05;;;;;;;14.96;25.27;99777.06;2619012;54;20042;-64
2022/04/17 11:10:08;;;;;;;498.52;282.25;;;;;;;15.02;24.82;99782.44;2620834;54;20022;-66
2022/04/17 11:12:50;;;;;;;11.82;7.20;;;;;;;15.02;25.31;99777.13;2621997;54;20143;-65
2022/04/17 11:15:30;;;;;;;387.20;206.48;;;;;;;15.12;24.72;99771.41;2620970;39;20426;-65
2022/04/17 11:18:03;;;;;;;107.20;66.20;;;;;;;15.24;24.69;99769.81;2620073;54;20026;-64
2022/04/17 11:20:34;;;;;;;136.15;88.72;;;;;;;15.42;24.26;99745.28;2618849;54;20038;-65
2022/04/17 11:23:05;;;;;;;16.80;11.50;;;;;;;15.49;23.95;99748.78;2619273;54;20038;-66
2022/04/17 11:25:53;;;;;;;389.52;225.90;;;;;;;15.57;24.03;99753.13;2619159;54;20039;-66
2022/04/17 11:28:36;;;;;;;411.55;220.00;;;;;;;15.63;24.18;99744.31;2618149;54;20027;-66
2022/04/17 11:31:09;;;;;;;776.60;415.38;;;;;;;15.79;24.10;99735.13;2619605;54;20046;-65
2022/04/17 11:33:39;;;;;;;947.00;507.08;;;;;;;15.94;24.12;99733.09;2619849;54;20038;-66
2022/04/17 11:36:11;;;;;;;136.50;62.25;;;;;;;16.07;24.40;99725.09;2619276;54;20598;-65
2022/04/17 11:38:44;;;;;;;75.75;31.52;;;;;;;16.07;23.90;99716.28;2618169;54;20034;-66
2022/04/17 11:41:16;;;;;;;226.77;134.38;;;;;;;16.03;23.86;99718.53;2617612;47;20037;-66
2022/04/17 11:44:00;;;;;;;70.30;43.58;;;;;;;16.05;23.25;99710.34;2618957;39;20151;-66
2022/04/17 11:46:33;;;;;;;99.15;56.00;;;;;;;15.95;23.77;99710.72;2618487;54;20129;-65
2022/04/17 11:49:03;;;;;;;34.22;17.75;;;;;;;16.09;23.42;99706.22;2617969;54;20574;-65
2022/04/17 11:51:32;;;;;;;423.42;268.33;;;;;;;16.15;22.25;99701.91;2618527;54;20030;-65
2022/04/17 11:54:02;;;;;;;649.55;367.73;;;;;;;16.14;23.02;99694.94;2618400;54;20053;-67
2022/04/17 11:56:53;;;;;;;182.45;96.72;;;;;;;16.22;23.55;99692.06;2618263;54;20042;-65
2022/04/17 11:59:23;;;;;;;693.85;389.10;;;;;;;16.12;24.40;99692.47;2618376;54;20957;-65
2022/04/17 12:02:12;;;;;;;365.90;149.35;;;;;;;16.06;25.99;99695.97;2618192;54;20034;-64
2022/04/17 12:04:42;;;;;;;59.00;29.60;;;;;;;15.93;26.60;99693.31;2623010;54;20023;-65
2022/04/17 12:07:12;;;;;;;22.60;14.93;;;;;;;15.87;26.73;99686.94;2622611;54;20094;-66
2022/04/17 12:09:42;;;;;;;134.30;85.30;;;;;;;15.76;27.39;99685.72;2622929;54;20038;-65
2022/04/17 12:12:15;;;;;;;11.65;7.95;;;;;;;16.04;26.94;99687.34;2622486;54;20038;-64